createdAt,value
2023-07-01T00:01:19.647Z,16.60
2023-07-01T00:03:49.096Z,16.63
2023-07-01T00:06:17.239Z,16.65
2023-07-01T00:08:45.088Z,16.66
2023-07-01T00:11:13.748Z,16.68
2023-07-01T00:13:41.780Z,16.72
2023-07-01T00:16:10.220Z,16.77
2023-07-01T00:18:38.160Z,16.73
2023-07-01T00:21:07.439Z,16.78
2023-07-01T00:23:35.993Z,16.76
2023-07-01T00:26:04.259Z,16.83
2023-07-01T00:28:32.109Z,16.80
2023-07-01T00:31:01.125Z,16.84
2023-07-01T00:33:29.150Z,16.76
2023-07-01T00:35:57.104Z,16.78
2023-07-01T00:38:26.559Z,16.79
2023-07-01T00:40:54.473Z,16.85
2023-07-01T00:43:22.334Z,16.83
2023-07-01T00:45:50.968Z,16.85
2023-07-01T00:48:25.693Z,16.78
2023-07-01T00:50:54.428Z,16.82
2023-07-01T00:53:23.848Z,16.82
2023-07-01T00:55:53.748Z,16.87
2023-07-01T00:58:22.122Z,16.93
2023-07-01T01:00:50.137Z,16.89
2023-07-01T01:03:28.414Z,16.90
2023-07-01T01:06:05.121Z,16.95
2023-07-01T01:08:41.962Z,16.97
2023-07-01T01:11:14.184Z,16.98
2023-07-01T01:13:44.573Z,17.01
2023-07-01T01:16:13.450Z,16.99
2023-07-01T01:18:44.421Z,17.00
2023-07-01T01:21:15.496Z,17.02
2023-07-01T01:23:52.240Z,17.05
2023-07-01T01:26:21.670Z,17.06
2023-07-01T01:28:51.968Z,17.08
2023-07-01T01:31:21.169Z,17.06
2023-07-01T01:33:49.615Z,17.05
2023-07-01T01:36:26.100Z,17.11
2023-07-01T01:38:58.475Z,17.07
2023-07-01T01:41:35.293Z,17.00
2023-07-01T01:44:08.920Z,17.07
2023-07-01T01:46:38.247Z,17.08
2023-07-01T01:49:09.278Z,17.06
2023-07-01T01:51:40.353Z,17.12
2023-07-01T01:54:10.357Z,17.12
2023-07-01T01:56:39.393Z,17.06
2023-07-01T01:59:08.900Z,17.06
2023-07-01T02:01:38.075Z,17.11
2023-07-01T02:04:06.481Z,17.11
2023-07-01T02:06:35.445Z,17.09
2023-07-01T02:09:06.204Z,17.10
2023-07-01T02:11:34.151Z,17.05
2023-07-01T02:14:02.120Z,17.08
2023-07-01T02:16:31.510Z,17.10
2023-07-01T02:18:59.540Z,17.09
2023-07-01T02:21:27.394Z,17.07
2023-07-01T02:23:55.205Z,17.06
2023-07-01T02:26:23.155Z,17.02
2023-07-01T02:28:50.906Z,17.02
2023-07-01T02:31:19.609Z,16.99
2023-07-01T02:33:48.858Z,16.99
2023-07-01T02:36:16.662Z,17.01
2023-07-01T02:38:44.618Z,17.08
2023-07-01T02:41:12.875Z,17.08
2023-07-01T02:43:40.714Z,17.11
2023-07-01T02:46:08.466Z,17.08
2023-07-01T02:48:36.280Z,17.10
2023-07-01T02:51:05.486Z,17.09
2023-07-01T02:53:33.270Z,17.08
2023-07-01T02:56:03.408Z,17.13
2023-07-01T02:58:31.215Z,17.09
2023-07-01T03:00:59.010Z,17.11
2023-07-01T03:03:27.733Z,17.15
2023-07-01T03:05:55.782Z,17.19
2023-07-01T03:08:25.384Z,17.19
2023-07-01T03:10:53.266Z,17.21
2023-07-01T03:13:21.027Z,17.29
2023-07-01T03:15:49.171Z,17.31
2023-07-01T03:18:17.043Z,17.30
2023-07-01T03:20:45.177Z,17.31
2023-07-01T03:23:13.388Z,17.30
2023-07-01T03:25:42.637Z,17.30
2023-07-01T03:28:11.081Z,17.25
2023-07-01T03:30:38.928Z,17.26
2023-07-01T03:33:07.522Z,17.24
2023-07-01T03:35:35.371Z,17.29
2023-07-01T03:38:03.111Z,17.29
2023-07-01T03:40:30.909Z,17.25
2023-07-01T03:43:00.118Z,17.26
2023-07-01T03:45:28.072Z,17.24
2023-07-01T03:47:55.874Z,17.31
2023-07-01T03:50:23.671Z,17.34
2023-07-01T03:52:51.508Z,17.29
2023-07-01T03:55:19.371Z,17.29
2023-07-01T03:57:47.251Z,17.33
2023-07-01T04:00:19.764Z,17.35
2023-07-01T04:02:48.735Z,17.35
2023-07-01T04:05:17.516Z,17.33
2023-07-01T04:07:47.756Z,17.30
2023-07-01T04:10:16.278Z,17.32
2023-07-01T04:12:44.772Z,17.34
2023-07-01T04:15:12.963Z,17.29
2023-07-01T04:17:44.107Z,17.39
2023-07-01T04:20:14.335Z,17.34
2023-07-01T04:22:42.945Z,17.35
2023-07-01T04:25:11.075Z,17.40
2023-07-01T04:27:39.000Z,17.42
2023-07-01T04:30:09.126Z,17.41
2023-07-01T04:32:37.385Z,17.35
2023-07-01T04:35:07.585Z,17.40
2023-07-01T04:37:36.039Z,17.43
2023-07-01T04:40:05.468Z,17.47
2023-07-01T04:42:34.274Z,17.50
2023-07-01T04:45:02.437Z,17.54
2023-07-01T04:47:32.030Z,17.61
2023-07-01T04:49:59.879Z,17.56
2023-07-01T04:52:29.170Z,17.58
2023-07-01T04:54:56.999Z,17.60
2023-07-01T04:57:24.748Z,17.65
2023-07-01T04:59:52.658Z,17.68
2023-07-01T05:02:20.526Z,17.71
2023-07-01T05:04:48.649Z,17.75
2023-07-01T05:07:16.613Z,17.71
2023-07-01T05:09:45.868Z,17.70
2023-07-01T05:12:14.498Z,17.66
2023-07-01T05:14:42.337Z,17.65
2023-07-01T05:17:10.164Z,17.72
2023-07-01T05:19:38.038Z,17.80
2023-07-01T05:22:05.896Z,17.89
2023-07-01T05:24:33.800Z,17.92
2023-07-01T05:27:03.166Z,17.91
2023-07-01T05:29:31.548Z,17.94
2023-07-01T05:31:59.389Z,18.00
2023-07-01T05:34:27.209Z,18.05
2023-07-01T05:36:56.604Z,18.13
2023-07-01T05:39:24.383Z,18.21
2023-07-01T05:41:52.154Z,18.15
2023-07-01T05:44:21.322Z,18.19
2023-07-01T05:46:49.096Z,18.19
2023-07-01T05:49:16.973Z,18.22
2023-07-01T05:51:44.804Z,18.29
2023-07-01T05:54:12.673Z,18.42
2023-07-01T05:56:40.483Z,18.36
2023-07-01T05:59:08.312Z,18.41
2023-07-01T06:01:37.574Z,18.42
2023-07-01T06:04:06.775Z,18.40
2023-07-01T06:06:34.632Z,18.53
2023-07-01T06:09:02.490Z,18.83
2023-07-01T06:11:30.246Z,18.80
2023-07-01T06:13:58.050Z,18.95
2023-07-01T06:16:25.899Z,18.92
2023-07-01T06:18:55.141Z,18.82
2023-07-01T06:21:23.076Z,18.80
2023-07-01T06:23:50.867Z,18.76
2023-07-01T06:26:18.647Z,18.82
2023-07-01T06:28:47.023Z,18.73
2023-07-01T06:31:14.957Z,18.71
2023-07-01T06:33:42.825Z,18.66
2023-07-01T06:36:13.988Z,18.68
2023-07-01T06:38:42.084Z,18.58
2023-07-01T06:41:09.925Z,18.49
2023-07-01T06:43:40.789Z,18.60
2023-07-01T06:46:08.771Z,18.51
2023-07-01T06:48:36.664Z,18.63
2023-07-01T06:51:05.504Z,18.60
2023-07-01T06:53:34.738Z,18.47
2023-07-01T06:56:02.499Z,18.56
2023-07-01T06:58:30.324Z,18.30
2023-07-01T07:00:58.104Z,18.22
2023-07-01T07:03:25.967Z,18.07
2023-07-01T07:05:55.811Z,18.05
2023-07-01T07:08:23.642Z,18.04
2023-07-01T07:10:52.848Z,17.69
2023-07-01T07:13:20.897Z,17.40
2023-07-01T07:15:48.814Z,17.28
2023-07-01T07:18:16.699Z,17.13
2023-07-01T07:20:44.800Z,16.93
2023-07-01T07:23:12.669Z,16.86
2023-07-01T07:25:40.402Z,16.64
2023-07-01T07:28:09.576Z,16.56
2023-07-01T07:30:38.273Z,16.57
2023-07-01T07:33:06.147Z,16.59
2023-07-01T07:35:33.973Z,16.55
2023-07-01T07:38:01.836Z,16.53
2023-07-01T07:40:29.649Z,16.65
2023-07-01T07:42:57.470Z,16.74
2023-07-01T07:45:26.598Z,17.00
2023-07-01T07:47:54.438Z,17.17
2023-07-01T07:50:23.355Z,17.16
2023-07-01T07:52:51.502Z,17.28
2023-07-01T07:55:19.530Z,17.20
2023-07-01T07:57:47.435Z,17.21
2023-07-01T08:00:16.133Z,17.15
2023-07-01T08:02:48.615Z,17.33
2023-07-01T08:05:18.236Z,17.32
2023-07-01T08:07:47.564Z,17.46
2023-07-01T08:10:15.406Z,17.58
2023-07-01T08:12:43.233Z,17.68
2023-07-01T08:15:12.096Z,17.74
2023-07-01T08:17:40.755Z,17.95
2023-07-01T08:20:11.607Z,17.91
2023-07-01T08:22:39.376Z,18.02
2023-07-01T08:25:08.144Z,18.08
2023-07-01T08:27:35.977Z,17.92
2023-07-01T08:30:04.129Z,17.92
2023-07-01T08:32:31.963Z,18.10
2023-07-01T08:34:59.763Z,18.08
2023-07-01T08:37:29.061Z,18.25
2023-07-01T08:39:56.862Z,18.51
2023-07-01T08:42:29.496Z,18.55
2023-07-01T08:44:58.725Z,18.38
2023-07-01T08:47:27.665Z,18.47
2023-07-01T08:50:00.535Z,18.81
2023-07-01T08:52:35.865Z,18.72
2023-07-01T08:55:03.832Z,18.57
2023-07-01T08:57:31.845Z,18.47
2023-07-01T09:00:00.258Z,18.57
2023-07-01T09:02:28.270Z,18.63
2023-07-01T09:04:56.387Z,18.51
2023-07-01T09:07:24.239Z,18.43
2023-07-01T09:09:53.426Z,18.45
2023-07-01T09:12:21.154Z,18.70
2023-07-01T09:14:58.600Z,18.53
2023-07-01T09:17:31.285Z,18.35
2023-07-01T09:20:04.161Z,18.28
2023-07-01T09:22:32.210Z,18.58
2023-07-01T09:25:01.526Z,18.30
2023-07-01T09:27:41.950Z,18.08
2023-07-01T09:30:26.483Z,18.07
2023-07-01T09:33:10.261Z,18.00
2023-07-01T09:35:42.576Z,17.85
2023-07-01T09:38:10.406Z,17.71
2023-07-01T09:40:39.583Z,17.64
2023-07-01T09:43:07.839Z,17.80
2023-07-01T09:45:35.753Z,17.99
2023-07-01T09:48:12.371Z,18.01
2023-07-01T09:50:41.894Z,18.11
2023-07-01T09:53:21.698Z,18.28
2023-07-01T09:55:51.146Z,18.65
2023-07-01T09:58:19.131Z,18.88
2023-07-01T10:00:47.088Z,18.91
2023-07-01T10:03:15.150Z,19.03
2023-07-01T10:05:45.427Z,19.09
2023-07-01T10:08:13.368Z,19.08
2023-07-01T10:10:41.324Z,18.95
2023-07-01T10:13:11.346Z,18.81
2023-07-01T10:15:40.776Z,18.46
2023-07-01T10:18:22.277Z,18.46
2023-07-01T10:20:50.952Z,18.45
2023-07-01T10:23:20.209Z,18.52
2023-07-01T10:25:48.436Z,18.42
2023-07-01T10:28:17.961Z,18.51
2023-07-01T10:31:11.082Z,18.25
2023-07-01T10:33:57.327Z,18.24
2023-07-01T10:36:25.872Z,18.29
2023-07-01T10:38:54.703Z,18.39
2023-07-01T10:41:54.414Z,18.37
2023-07-01T10:44:27.163Z,18.49
2023-07-01T10:47:19.302Z,18.23
2023-07-01T10:50:08.034Z,18.50
2023-07-01T10:53:03.428Z,18.62
2023-07-01T10:55:45.384Z,18.42
2023-07-01T10:58:23.108Z,18.30
2023-07-01T11:00:53.731Z,18.66
2023-07-01T11:03:59.466Z,18.81
2023-07-01T11:06:27.561Z,19.04
2023-07-01T11:08:57.432Z,19.06
2023-07-01T11:11:27.048Z,18.87
2023-07-01T11:14:03.779Z,18.72
2023-07-01T11:16:34.255Z,18.97
2023-07-01T11:19:04.928Z,18.79
2023-07-01T11:21:33.924Z,19.04
2023-07-01T11:24:04.692Z,19.35
2023-07-01T11:26:34.374Z,19.62
2023-07-01T11:29:03.199Z,20.05
2023-07-01T11:31:37.769Z,20.66
2023-07-01T11:34:05.962Z,20.11
2023-07-01T11:36:36.776Z,19.87
2023-07-01T11:39:14.165Z,19.85
2023-07-01T11:41:44.061Z,19.61
2023-07-01T11:44:13.426Z,19.35
2023-07-01T11:46:44.439Z,19.28
2023-07-01T11:49:17.181Z,19.43
2023-07-01T11:51:46.575Z,19.44
2023-07-01T11:54:15.309Z,19.24
2023-07-01T11:56:44.133Z,19.03
2023-07-01T11:59:12.082Z,18.84
2023-07-01T12:01:42.311Z,18.88
2023-07-01T12:04:17.824Z,18.70
2023-07-01T12:06:46.510Z,18.74
2023-07-01T12:09:29.151Z,18.51
2023-07-01T12:11:57.061Z,18.29
2023-07-01T12:14:25.882Z,18.19
2023-07-01T12:16:56.070Z,18.26
2023-07-01T12:19:25.175Z,18.39
2023-07-01T12:21:54.579Z,18.29
2023-07-01T12:24:23.730Z,18.30
2023-07-01T12:26:52.643Z,18.20
2023-07-01T12:29:20.554Z,18.18
2023-07-01T12:31:48.429Z,18.50
2023-07-01T12:34:18.466Z,18.53
2023-07-01T12:36:47.043Z,18.42
2023-07-01T12:39:16.650Z,18.46
2023-07-01T12:41:45.638Z,18.38
2023-07-01T12:44:13.412Z,18.31
2023-07-01T12:46:44.582Z,18.11
2023-07-01T12:49:12.843Z,18.17
2023-07-01T12:51:42.735Z,18.22
2023-07-01T12:56:42.449Z,18.22
2023-07-01T12:59:10.335Z,18.07
2023-07-01T13:01:38.254Z,17.94
2023-07-01T13:04:06.933Z,17.97
2023-07-01T13:06:39.605Z,17.90
2023-07-01T13:09:11.712Z,17.86
2023-07-01T13:11:41.081Z,17.79
2023-07-01T13:14:11.026Z,17.97
2023-07-01T13:16:40.590Z,17.91
2023-07-01T13:19:10.135Z,17.93
2023-07-01T13:21:39.956Z,18.05
2023-07-01T13:24:11.642Z,18.08
2023-07-01T13:26:39.808Z,18.20
2023-07-01T13:29:12.989Z,18.20
2023-07-01T13:31:41.421Z,18.06
2023-07-01T13:34:10.355Z,18.13
2023-07-01T13:36:40.399Z,18.11
2023-07-01T13:39:15.539Z,18.15
2023-07-01T13:41:43.300Z,18.31
2023-07-01T13:44:19.517Z,18.56
2023-07-01T13:46:47.556Z,18.76
2023-07-01T13:49:22.644Z,19.15
2023-07-01T13:51:50.521Z,19.97
2023-07-01T13:54:23.278Z,20.11
2023-07-01T13:56:51.197Z,20.02
2023-07-01T13:59:20.766Z,20.63
2023-07-01T14:01:58.600Z,20.75
2023-07-01T14:04:27.548Z,20.92
2023-07-01T14:06:55.605Z,20.63
2023-07-01T14:09:27.387Z,21.08
2023-07-01T14:11:55.880Z,21.83
2023-07-01T14:14:27.810Z,23.51
2023-07-01T14:16:56.606Z,23.44
2023-07-01T14:19:24.783Z,23.37
2023-07-01T14:21:54.978Z,22.55
2023-07-01T14:24:28.185Z,22.81
2023-07-01T14:26:57.714Z,22.01
2023-07-01T14:29:25.930Z,21.72
2023-07-01T14:31:54.937Z,21.46
2023-07-01T14:34:31.659Z,21.47
2023-07-01T14:37:00.224Z,21.66
2023-07-01T14:39:44.536Z,21.83
2023-07-01T14:42:13.035Z,22.86
2023-07-01T14:44:40.836Z,23.06
2023-07-01T14:47:08.671Z,22.38
2023-07-01T14:49:39.743Z,22.54
2023-07-01T14:52:08.921Z,22.42
2023-07-01T14:54:38.165Z,22.12
2023-07-01T14:57:06.910Z,22.34
2023-07-01T14:59:34.836Z,21.60
2023-07-01T15:02:02.692Z,22.15
2023-07-01T15:04:30.578Z,22.78
2023-07-01T15:06:58.463Z,22.13
2023-07-01T15:09:26.271Z,22.49
2023-07-01T15:11:55.717Z,22.70
2023-07-01T15:14:23.622Z,22.68
2023-07-01T15:16:51.420Z,23.41
2023-07-01T15:19:19.268Z,25.12
2023-07-01T15:21:47.184Z,24.95
2023-07-01T15:24:14.983Z,23.94
2023-07-01T15:26:42.799Z,24.32
2023-07-01T15:29:11.937Z,24.17
2023-07-01T15:31:39.841Z,23.59
2023-07-01T15:34:07.759Z,23.37
2023-07-01T15:36:36.179Z,23.02
2023-07-01T15:39:04.273Z,22.95
2023-07-01T15:41:46.228Z,22.81
2023-07-01T15:44:17.521Z,24.65
2023-07-01T15:46:45.464Z,23.50
2023-07-01T15:49:13.289Z,22.84
2023-07-01T15:51:41.445Z,22.50
2023-07-01T15:54:11.423Z,22.19
2023-07-01T15:56:39.498Z,21.97
2023-07-01T15:59:07.966Z,21.45
2023-07-01T16:01:37.488Z,21.37
2023-07-01T16:04:05.940Z,20.83
2023-07-01T16:06:33.819Z,20.41
2023-07-01T16:09:01.604Z,20.22
2023-07-01T16:11:33.004Z,20.16
2023-07-01T16:14:02.573Z,20.14
2023-07-01T16:16:43.522Z,20.23
2023-07-01T16:19:17.539Z,20.48
2023-07-01T16:21:46.054Z,20.46
2023-07-01T16:24:49.366Z,20.50
2023-07-01T16:27:19.087Z,20.65
2023-07-01T16:29:47.174Z,20.59
2023-07-01T16:32:20.770Z,20.53
2023-07-01T16:34:50.260Z,20.39
2023-07-01T16:37:18.862Z,20.34
2023-07-01T16:39:51.968Z,20.34
2023-07-01T16:42:20.870Z,20.60
2023-07-01T16:44:52.744Z,20.33
2023-07-01T16:47:21.379Z,20.32
2023-07-01T16:49:51.705Z,20.41
2023-07-01T16:52:27.082Z,20.61
2023-07-01T16:54:55.382Z,20.54
2023-07-01T16:57:23.916Z,20.38
2023-07-01T16:59:52.054Z,20.42
2023-07-01T17:03:02.014Z,20.65
2023-07-01T17:05:31.539Z,20.97
2023-07-01T17:07:59.446Z,20.79
2023-07-01T17:10:39.603Z,20.57
2023-07-01T17:13:20.605Z,20.33
2023-07-01T17:15:52.858Z,20.20
2023-07-01T17:18:22.021Z,20.19
2023-07-01T17:20:51.197Z,20.18
2023-07-01T17:23:19.823Z,20.13
2023-07-01T17:25:47.987Z,19.97
2023-07-01T17:28:16.020Z,19.92
2023-07-01T17:30:44.115Z,19.87
2023-07-01T17:33:12.216Z,19.79
2023-07-01T17:35:40.241Z,19.73
2023-07-01T17:38:09.428Z,19.72
2023-07-01T17:40:37.270Z,19.59
2023-07-01T17:43:05.098Z,19.45
2023-07-01T17:45:32.876Z,19.15
2023-07-01T17:48:01.127Z,18.91
2023-07-01T17:50:28.982Z,18.76
2023-07-01T17:52:56.753Z,18.70
2023-07-01T17:55:26.056Z,18.68
2023-07-01T17:57:56.121Z,18.72
2023-07-01T18:00:24.899Z,18.64
2023-07-01T18:02:52.771Z,18.64
2023-07-01T18:05:20.758Z,18.59
2023-07-01T18:07:48.738Z,18.59
2023-07-01T18:10:16.890Z,18.57
2023-07-01T18:12:46.067Z,18.49
2023-07-01T18:15:16.506Z,18.40
2023-07-01T18:17:45.755Z,18.26
2023-07-01T18:20:14.124Z,18.09
2023-07-01T18:22:41.986Z,17.98
2023-07-01T18:25:12.835Z,17.78
2023-07-01T18:27:40.737Z,17.71
2023-07-01T18:30:14.509Z,17.65
2023-07-01T18:32:43.981Z,17.67
2023-07-01T18:35:14.409Z,17.59
2023-07-01T18:37:45.106Z,17.62
2023-07-01T18:40:14.520Z,17.57
2023-07-01T18:42:42.524Z,17.57
2023-07-01T18:45:12.536Z,17.56
2023-07-01T18:47:40.387Z,17.56
2023-07-01T18:50:08.680Z,17.49
2023-07-01T18:52:36.476Z,17.58
2023-07-01T18:55:05.211Z,17.61
2023-07-01T18:57:34.346Z,17.55
2023-07-01T19:00:03.171Z,17.58
2023-07-01T19:02:32.549Z,17.58
2023-07-01T19:05:00.403Z,17.61
2023-07-01T19:07:29.456Z,17.55
2023-07-01T19:09:57.706Z,17.55
2023-07-01T19:12:25.485Z,17.53
2023-07-01T19:14:53.256Z,17.51
2023-07-01T19:17:21.509Z,17.55
2023-07-01T19:19:50.798Z,17.52
2023-07-01T19:22:21.657Z,17.53
2023-07-01T19:24:51.854Z,17.53
2023-07-01T19:27:20.923Z,17.52
2023-07-01T19:30:03.422Z,17.46
2023-07-01T19:32:38.508Z,17.49
2023-07-01T19:35:08.817Z,17.59
2023-07-01T19:37:36.586Z,17.62
2023-07-01T19:40:04.885Z,17.59
2023-07-01T19:42:32.698Z,17.58
2023-07-01T19:45:00.551Z,17.59
2023-07-01T19:47:28.681Z,17.60
2023-07-01T19:49:56.627Z,17.62
2023-07-01T19:52:25.779Z,17.65
2023-07-01T19:54:54.421Z,17.58
2023-07-01T19:57:22.241Z,17.55
2023-07-01T19:59:49.991Z,17.52
2023-07-01T20:02:17.900Z,17.56
2023-07-01T20:04:45.782Z,17.53
2023-07-01T20:07:13.648Z,17.49
2023-07-01T20:09:44.842Z,17.44
2023-07-01T20:12:13.646Z,17.49
2023-07-01T20:14:41.545Z,17.47
2023-07-01T20:17:10.347Z,17.51
2023-07-01T20:19:38.110Z,17.55
2023-07-01T20:22:05.918Z,17.50
2023-07-01T20:24:33.764Z,17.43
2023-07-01T20:27:02.914Z,17.45
2023-07-01T20:29:30.824Z,17.42
2023-07-01T20:31:58.616Z,17.40
2023-07-01T20:34:26.411Z,17.34
2023-07-01T20:36:54.267Z,17.36
2023-07-01T20:39:22.035Z,17.29
2023-07-01T20:42:02.884Z,17.31
2023-07-01T20:44:37.146Z,17.29
2023-07-01T20:47:06.478Z,17.24
2023-07-01T20:49:34.485Z,17.25
2023-07-01T20:52:03.845Z,17.20
2023-07-01T20:54:32.150Z,17.22
2023-07-01T20:57:00.071Z,17.22
2023-07-01T20:59:31.617Z,17.20
2023-07-01T21:02:01.484Z,17.17
2023-07-01T21:04:29.945Z,17.13
2023-07-01T21:06:57.775Z,17.14
2023-07-01T21:09:25.666Z,17.12
2023-07-01T21:11:53.753Z,17.05
2023-07-01T21:14:22.104Z,17.05
2023-07-01T21:16:51.356Z,17.04
2023-07-01T21:19:20.661Z,16.99
2023-07-01T21:21:49.010Z,17.00
2023-07-01T21:24:17.288Z,16.93
2023-07-01T21:26:45.135Z,16.93
2023-07-01T21:29:15.549Z,16.91
2023-07-01T21:31:49.789Z,16.90
2023-07-01T21:34:20.353Z,16.87
2023-07-01T21:36:51.860Z,16.89
2023-07-01T21:39:23.493Z,16.83
2023-07-01T21:41:51.417Z,16.83
2023-07-01T21:44:19.665Z,16.84
2023-07-01T21:46:47.933Z,16.84
2023-07-01T21:49:16.725Z,16.85
2023-07-01T21:51:47.532Z,16.84
2023-07-01T21:54:20.280Z,16.78
2023-07-01T21:56:49.988Z,16.73
2023-07-01T21:59:18.141Z,16.73
2023-07-01T22:01:46.955Z,16.63
2023-07-01T22:04:15.886Z,16.60
2023-07-01T22:06:46.477Z,16.62
2023-07-01T22:09:14.578Z,16.58
2023-07-01T22:11:44.746Z,16.65
2023-07-01T22:14:13.101Z,16.63
2023-07-01T22:16:41.077Z,16.59
2023-07-01T22:19:09.018Z,16.62
2023-07-01T22:21:37.131Z,16.67
2023-07-01T22:24:06.191Z,16.61
2023-07-01T22:26:34.867Z,16.61
2023-07-01T22:29:04.028Z,16.60
2023-07-01T22:31:31.861Z,16.60
2023-07-01T22:33:59.912Z,16.61
2023-07-01T22:36:27.793Z,16.57
2023-07-01T22:38:56.453Z,16.60
2023-07-01T22:41:24.727Z,16.61
2023-07-01T22:43:52.604Z,16.60
2023-07-01T22:46:21.867Z,16.57
2023-07-01T22:48:49.714Z,16.56
2023-07-01T22:51:17.564Z,16.49
2023-07-01T22:53:45.452Z,16.48
2023-07-01T22:56:13.440Z,16.45
2023-07-01T22:58:41.246Z,16.43
2023-07-01T23:01:09.031Z,16.54
2023-07-01T23:03:38.273Z,16.52
2023-07-01T23:06:06.311Z,16.50
2023-07-01T23:08:34.143Z,16.53
2023-07-01T23:11:01.916Z,16.52
2023-07-01T23:13:29.726Z,16.48
2023-07-01T23:15:57.538Z,16.53
2023-07-01T23:18:25.349Z,16.53
2023-07-01T23:20:55.564Z,16.45
2023-07-01T23:23:23.783Z,16.42
2023-07-01T23:25:51.531Z,16.48
2023-07-01T23:28:19.334Z,16.43
2023-07-01T23:30:47.325Z,16.46
2023-07-01T23:33:17.819Z,16.41
2023-07-01T23:35:45.704Z,16.40
2023-07-01T23:38:14.894Z,16.39
2023-07-01T23:40:42.669Z,16.41
2023-07-01T23:43:10.513Z,16.43
2023-07-01T23:45:38.396Z,16.45
2023-07-01T23:48:07.028Z,16.42
2023-07-01T23:50:34.865Z,16.43
2023-07-01T23:53:02.664Z,16.42
2023-07-01T23:55:31.909Z,16.45
2023-07-01T23:57:59.662Z,16.46
